sensor_id;sensor_type;location;lat;lon;timestamp;temperature;humidity
13521;DHT22;6832;51.186;3.236;2023-08-17T00:01:02;29.50;52.00
13521;DHT22;6832;51.186;3.236;2023-08-17T00:03:29;29.50;52.00
13521;DHT22;6832;51.186;3.236;2023-08-17T00:05:56;29.50;52.00
13521;DHT22;6832;51.186;3.236;2023-08-17T00:08:23;29.50;52.00
13521;DHT22;6832;51.186;3.236;2023-08-17T00:10:50;29.50;52.00
13521;DHT22;6832;51.186;3.236;2023-08-17T00:13:18;29.40;52.00
13521;DHT22;6832;51.186;3.236;2023-08-17T00:15:45;29.40;52.00
13521;DHT22;6832;51.186;3.236;2023-08-17T00:18:12;29.40;52.00
13521;DHT22;6832;51.186;3.236;2023-08-17T00:20:39;29.40;52.00
13521;DHT22;6832;51.186;3.236;2023-08-17T00:23:06;29.40;52.00
13521;DHT22;6832;51.186;3.236;2023-08-17T00:25:33;29.40;52.00
13521;DHT22;6832;51.186;3.236;2023-08-17T00:28:00;29.40;52.00
13521;DHT22;6832;51.186;3.236;2023-08-17T00:30:29;29.30;51.90
13521;DHT22;6832;51.186;3.236;2023-08-17T00:32:55;29.40;52.00
13521;DHT22;6832;51.186;3.236;2023-08-17T00:35:22;29.30;52.00
13521;DHT22;6832;51.186;3.236;2023-08-17T00:37:49;29.40;52.00
13521;DHT22;6832;51.186;3.236;2023-08-17T00:40:17;29.40;52.10
13521;DHT22;6832;51.186;3.236;2023-08-17T00:42:43;29.30;52.00
13521;DHT22;6832;51.186;3.236;2023-08-17T00:45:10;29.30;52.00
13521;DHT22;6832;51.186;3.236;2023-08-17T00:47:39;29.30;52.10
13521;DHT22;6832;51.186;3.236;2023-08-17T00:50:07;29.30;52.00
13521;DHT22;6832;51.186;3.236;2023-08-17T00:52:34;29.30;52.10
13521;DHT22;6832;51.186;3.236;2023-08-17T00:55:03;29.30;52.10
13521;DHT22;6832;51.186;3.236;2023-08-17T00:57:30;29.30;52.10
13521;DHT22;6832;51.186;3.236;2023-08-17T00:59:58;29.30;52.10
13521;DHT22;6832;51.186;3.236;2023-08-17T01:02:26;29.20;52.10
13521;DHT22;6832;51.186;3.236;2023-08-17T01:04:54;29.20;52.10
13521;DHT22;6832;51.186;3.236;2023-08-17T01:07:21;29.20;52.10
13521;DHT22;6832;51.186;3.236;2023-08-17T01:09:48;29.30;52.20
13521;DHT22;6832;51.186;3.236;2023-08-17T01:12:21;29.20;52.10
13521;DHT22;6832;51.186;3.236;2023-08-17T01:15:09;29.30;52.20
13521;DHT22;6832;51.186;3.236;2023-08-17T01:17:47;29.20;52.10
13521;DHT22;6832;51.186;3.236;2023-08-17T01:20:16;29.20;52.10
13521;DHT22;6832;51.186;3.236;2023-08-17T01:22:45;29.20;52.10
13521;DHT22;6832;51.186;3.236;2023-08-17T01:25:15;29.20;52.10
13521;DHT22;6832;51.186;3.236;2023-08-17T01:27:46;29.20;52.10
13521;DHT22;6832;51.186;3.236;2023-08-17T01:30:16;29.20;52.10
13521;DHT22;6832;51.186;3.236;2023-08-17T01:32:48;29.20;52.80
13521;DHT22;6832;51.186;3.236;2023-08-17T01:35:21;29.20;52.20
13521;DHT22;6832;51.186;3.236;2023-08-17T01:37:50;29.20;52.20
13521;DHT22;6832;51.186;3.236;2023-08-17T01:40:21;29.10;52.10
13521;DHT22;6832;51.186;3.236;2023-08-17T01:42:50;29.10;52.10
13521;DHT22;6832;51.186;3.236;2023-08-17T01:45:18;29.10;52.20
13521;DHT22;6832;51.186;3.236;2023-08-17T01:47:45;29.10;52.20
13521;DHT22;6832;51.186;3.236;2023-08-17T01:50:12;29.10;52.20
13521;DHT22;6832;51.186;3.236;2023-08-17T01:52:39;29.10;52.20
13521;DHT22;6832;51.186;3.236;2023-08-17T01:55:06;29.10;52.20
13521;DHT22;6832;51.186;3.236;2023-08-17T01:57:35;29.10;52.30
13521;DHT22;6832;51.186;3.236;2023-08-17T02:00:03;29.10;52.20
13521;DHT22;6832;51.186;3.236;2023-08-17T02:02:30;29.10;52.30
13521;DHT22;6832;51.186;3.236;2023-08-17T02:04:57;29.00;52.20
13521;DHT22;6832;51.186;3.236;2023-08-17T02:07:24;29.00;52.20
13521;DHT22;6832;51.186;3.236;2023-08-17T02:09:51;29.10;52.30
13521;DHT22;6832;51.186;3.236;2023-08-17T02:12:18;29.00;52.20
13521;DHT22;6832;51.186;3.236;2023-08-17T02:14:46;29.00;52.20
13521;DHT22;6832;51.186;3.236;2023-08-17T02:17:13;29.00;52.30
13521;DHT22;6832;51.186;3.236;2023-08-17T02:19:42;29.00;52.30
13521;DHT22;6832;51.186;3.236;2023-08-17T02:22:09;29.00;52.30
13521;DHT22;6832;51.186;3.236;2023-08-17T02:24:36;29.00;52.30
13521;DHT22;6832;51.186;3.236;2023-08-17T02:27:03;29.00;52.30
13521;DHT22;6832;51.186;3.236;2023-08-17T02:29:30;29.00;52.30
13521;DHT22;6832;51.186;3.236;2023-08-17T02:31:58;29.00;52.30
13521;DHT22;6832;51.186;3.236;2023-08-17T02:34:25;29.00;52.90
13521;DHT22;6832;51.186;3.236;2023-08-17T02:36:52;29.00;52.30
13521;DHT22;6832;51.186;3.236;2023-08-17T02:39:19;29.00;52.30
13521;DHT22;6832;51.186;3.236;2023-08-17T02:41:46;28.90;52.30
13521;DHT22;6832;51.186;3.236;2023-08-17T02:44:15;28.90;52.30
13521;DHT22;6832;51.186;3.236;2023-08-17T02:46:41;28.90;52.30
13521;DHT22;6832;51.186;3.236;2023-08-17T02:49:10;28.90;52.30
13521;DHT22;6832;51.186;3.236;2023-08-17T02:51:37;28.90;52.30
13521;DHT22;6832;51.186;3.236;2023-08-17T02:54:04;28.80;52.90
13521;DHT22;6832;51.186;3.236;2023-08-17T02:56:31;28.90;52.30
13521;DHT22;6832;51.186;3.236;2023-08-17T02:58:58;28.80;52.30
13521;DHT22;6832;51.186;3.236;2023-08-17T03:01:25;28.80;52.30
13521;DHT22;6832;51.186;3.236;2023-08-17T03:03:52;28.80;52.30
13521;DHT22;6832;51.186;3.236;2023-08-17T03:06:20;28.80;52.30
13521;DHT22;6832;51.186;3.236;2023-08-17T03:08:47;28.80;52.40
13521;DHT22;6832;51.186;3.236;2023-08-17T03:11:14;28.80;52.40
13521;DHT22;6832;51.186;3.236;2023-08-17T03:13:41;28.80;52.30
13521;DHT22;6832;51.186;3.236;2023-08-17T03:16:08;28.80;52.40
13521;DHT22;6832;51.186;3.236;2023-08-17T03:18:35;28.80;52.40
13521;DHT22;6832;51.186;3.236;2023-08-17T03:21:02;28.80;52.40
13521;DHT22;6832;51.186;3.236;2023-08-17T03:23:30;28.80;52.40
13521;DHT22;6832;51.186;3.236;2023-08-17T03:25:57;28.80;52.40
13521;DHT22;6832;51.186;3.236;2023-08-17T03:28:24;28.80;52.40
13521;DHT22;6832;51.186;3.236;2023-08-17T03:30:54;28.80;52.40
13521;DHT22;6832;51.186;3.236;2023-08-17T03:33:22;28.70;52.40
13521;DHT22;6832;51.186;3.236;2023-08-17T03:35:49;28.70;52.40
13521;DHT22;6832;51.186;3.236;2023-08-17T03:38:16;28.80;52.40
13521;DHT22;6832;51.186;3.236;2023-08-17T03:40:44;28.70;52.40
13521;DHT22;6832;51.186;3.236;2023-08-17T03:43:11;28.70;52.40
13521;DHT22;6832;51.186;3.236;2023-08-17T03:45:40;28.70;52.40
13521;DHT22;6832;51.186;3.236;2023-08-17T03:48:07;28.70;52.40
13521;DHT22;6832;51.186;3.236;2023-08-17T03:50:34;28.70;52.40
13521;DHT22;6832;51.186;3.236;2023-08-17T03:53:01;28.70;52.40
13521;DHT22;6832;51.186;3.236;2023-08-17T03:55:28;28.70;52.40
13521;DHT22;6832;51.186;3.236;2023-08-17T03:57:56;28.70;52.40
13521;DHT22;6832;51.186;3.236;2023-08-17T04:00:23;28.70;52.40
13521;DHT22;6832;51.186;3.236;2023-08-17T04:02:50;28.70;52.40
13521;DHT22;6832;51.186;3.236;2023-08-17T04:05:17;28.70;52.50
13521;DHT22;6832;51.186;3.236;2023-08-17T04:07:44;28.60;52.40
13521;DHT22;6832;51.186;3.236;2023-08-17T04:10:13;28.60;52.40
13521;DHT22;6832;51.186;3.236;2023-08-17T04:12:40;28.60;52.40
13521;DHT22;6832;51.186;3.236;2023-08-17T04:15:08;28.60;52.40
13521;DHT22;6832;51.186;3.236;2023-08-17T04:17:35;28.60;52.40
13521;DHT22;6832;51.186;3.236;2023-08-17T04:20:03;28.60;52.50
13521;DHT22;6832;51.186;3.236;2023-08-17T04:22:30;28.60;52.50
13521;DHT22;6832;51.186;3.236;2023-08-17T04:24:57;28.60;52.50
13521;DHT22;6832;51.186;3.236;2023-08-17T04:27:24;28.60;52.50
13521;DHT22;6832;51.186;3.236;2023-08-17T04:29:51;28.60;52.50
13521;DHT22;6832;51.186;3.236;2023-08-17T04:32:19;28.60;52.50
13521;DHT22;6832;51.186;3.236;2023-08-17T04:34:46;28.60;52.50
13521;DHT22;6832;51.186;3.236;2023-08-17T04:37:14;28.60;52.50
13521;DHT22;6832;51.186;3.236;2023-08-17T04:39:41;28.60;52.50
13521;DHT22;6832;51.186;3.236;2023-08-17T04:42:09;28.50;52.50
13521;DHT22;6832;51.186;3.236;2023-08-17T04:44:36;28.60;52.50
13521;DHT22;6832;51.186;3.236;2023-08-17T04:47:03;28.60;52.60
13521;DHT22;6832;51.186;3.236;2023-08-17T04:49:32;28.50;52.90
13521;DHT22;6832;51.186;3.236;2023-08-17T04:52:02;28.50;52.90
13521;DHT22;6832;51.186;3.236;2023-08-17T04:54:29;28.50;52.80
13521;DHT22;6832;51.186;3.236;2023-08-17T04:56:56;28.50;52.60
13521;DHT22;6832;51.186;3.236;2023-08-17T04:59:23;28.50;52.60
13521;DHT22;6832;51.186;3.236;2023-08-17T05:01:50;28.60;52.60
13521;DHT22;6832;51.186;3.236;2023-08-17T05:04:17;28.50;52.50
13521;DHT22;6832;51.186;3.236;2023-08-17T05:06:46;28.50;52.50
13521;DHT22;6832;51.186;3.236;2023-08-17T05:09:13;28.50;53.10
13521;DHT22;6832;51.186;3.236;2023-08-17T05:11:40;28.60;52.60
13521;DHT22;6832;51.186;3.236;2023-08-17T05:14:07;28.50;52.50
13521;DHT22;6832;51.186;3.236;2023-08-17T05:16:34;28.50;52.50
13521;DHT22;6832;51.186;3.236;2023-08-17T05:19:01;28.50;52.50
13521;DHT22;6832;51.186;3.236;2023-08-17T05:21:28;28.50;52.50
13521;DHT22;6832;51.186;3.236;2023-08-17T05:23:57;28.50;52.50
13521;DHT22;6832;51.186;3.236;2023-08-17T05:26:24;28.50;52.50
13521;DHT22;6832;51.186;3.236;2023-08-17T05:28:51;28.50;52.50
13521;DHT22;6832;51.186;3.236;2023-08-17T05:31:18;28.50;52.60
13521;DHT22;6832;51.186;3.236;2023-08-17T05:33:45;28.50;52.60
13521;DHT22;6832;51.186;3.236;2023-08-17T05:36:12;28.50;52.60
13521;DHT22;6832;51.186;3.236;2023-08-17T05:38:40;28.40;52.50
13521;DHT22;6832;51.186;3.236;2023-08-17T05:41:08;28.50;52.60
13521;DHT22;6832;51.186;3.236;2023-08-17T05:43:35;28.40;52.60
13521;DHT22;6832;51.186;3.236;2023-08-17T05:46:02;28.40;52.60
13521;DHT22;6832;51.186;3.236;2023-08-17T05:48:29;28.40;52.60
13521;DHT22;6832;51.186;3.236;2023-08-17T05:50:56;28.40;52.60
13521;DHT22;6832;51.186;3.236;2023-08-17T05:53:23;28.40;52.60
13521;DHT22;6832;51.186;3.236;2023-08-17T05:55:50;28.40;52.70
13521;DHT22;6832;51.186;3.236;2023-08-17T05:58:18;28.40;52.70
13521;DHT22;6832;51.186;3.236;2023-08-17T06:00:45;28.40;52.70
13521;DHT22;6832;51.186;3.236;2023-08-17T06:03:12;28.40;52.70
13521;DHT22;6832;51.186;3.236;2023-08-17T06:05:39;28.40;52.70
13521;DHT22;6832;51.186;3.236;2023-08-17T06:08:06;28.40;52.80
13521;DHT22;6832;51.186;3.236;2023-08-17T06:10:33;28.40;52.80
13521;DHT22;6832;51.186;3.236;2023-08-17T06:13:00;28.40;52.80
13521;DHT22;6832;51.186;3.236;2023-08-17T06:15:29;28.40;52.80
13521;DHT22;6832;51.186;3.236;2023-08-17T06:17:56;28.40;52.80
13521;DHT22;6832;51.186;3.236;2023-08-17T06:20:22;28.40;52.80
13521;DHT22;6832;51.186;3.236;2023-08-17T06:22:49;28.30;52.80
13521;DHT22;6832;51.186;3.236;2023-08-17T06:25:16;28.40;52.80
13521;DHT22;6832;51.186;3.236;2023-08-17T06:27:43;28.40;52.80
13521;DHT22;6832;51.186;3.236;2023-08-17T06:30:11;28.40;52.80
13521;DHT22;6832;51.186;3.236;2023-08-17T06:32:40;28.30;52.70
13521;DHT22;6832;51.186;3.236;2023-08-17T06:35:07;28.40;52.80
13521;DHT22;6832;51.186;3.236;2023-08-17T06:37:35;28.40;52.80
13521;DHT22;6832;51.186;3.236;2023-08-17T06:40:02;28.40;52.80
13521;DHT22;6832;51.186;3.236;2023-08-17T06:42:30;28.40;52.80
13521;DHT22;6832;51.186;3.236;2023-08-17T06:44:58;28.30;53.30
13521;DHT22;6832;51.186;3.236;2023-08-17T06:47:25;28.40;52.80
13521;DHT22;6832;51.186;3.236;2023-08-17T06:49:54;28.30;52.70
13521;DHT22;6832;51.186;3.236;2023-08-17T06:52:23;28.40;52.80
13521;DHT22;6832;51.186;3.236;2023-08-17T06:54:50;28.40;52.80
13521;DHT22;6832;51.186;3.236;2023-08-17T06:57:17;28.30;52.70
13521;DHT22;6832;51.186;3.236;2023-08-17T06:59:44;28.40;52.80
13521;DHT22;6832;51.186;3.236;2023-08-17T07:02:12;28.40;52.80
13521;DHT22;6832;51.186;3.236;2023-08-17T07:04:39;28.40;52.80
13521;DHT22;6832;51.186;3.236;2023-08-17T07:07:07;28.40;52.90
13521;DHT22;6832;51.186;3.236;2023-08-17T07:09:34;28.30;52.70
13521;DHT22;6832;51.186;3.236;2023-08-17T07:12:01;28.30;52.80
13521;DHT22;6832;51.186;3.236;2023-08-17T07:14:28;28.40;52.80
13521;DHT22;6832;51.186;3.236;2023-08-17T07:16:55;28.40;52.80
13521;DHT22;6832;51.186;3.236;2023-08-17T07:19:22;28.40;52.80
13521;DHT22;6832;51.186;3.236;2023-08-17T07:21:49;28.40;52.80
13521;DHT22;6832;51.186;3.236;2023-08-17T07:24:17;28.40;52.80
13521;DHT22;6832;51.186;3.236;2023-08-17T07:26:44;28.40;52.80
13521;DHT22;6832;51.186;3.236;2023-08-17T07:29:11;28.40;52.80
13521;DHT22;6832;51.186;3.236;2023-08-17T07:31:39;28.40;52.80
13521;DHT22;6832;51.186;3.236;2023-08-17T07:34:06;28.40;52.80
13521;DHT22;6832;51.186;3.236;2023-08-17T07:36:33;28.40;52.80
13521;DHT22;6832;51.186;3.236;2023-08-17T07:39:00;28.40;52.80
13521;DHT22;6832;51.186;3.236;2023-08-17T07:41:29;28.40;52.80
13521;DHT22;6832;51.186;3.236;2023-08-17T07:43:56;28.40;52.80
13521;DHT22;6832;51.186;3.236;2023-08-17T07:46:23;28.40;52.80
13521;DHT22;6832;51.186;3.236;2023-08-17T07:48:50;28.40;52.80
13521;DHT22;6832;51.186;3.236;2023-08-17T07:51:16;28.40;52.80
13521;DHT22;6832;51.186;3.236;2023-08-17T07:53:43;28.40;52.80
13521;DHT22;6832;51.186;3.236;2023-08-17T07:56:10;28.40;52.80
13521;DHT22;6832;51.186;3.236;2023-08-17T07:58:39;28.50;53.50
13521;DHT22;6832;51.186;3.236;2023-08-17T08:01:06;28.50;52.90
13521;DHT22;6832;51.186;3.236;2023-08-17T08:03:32;28.50;53.50
13521;DHT22;6832;51.186;3.236;2023-08-17T08:05:59;28.50;52.90
13521;DHT22;6832;51.186;3.236;2023-08-17T08:08:26;28.50;52.90
13521;DHT22;6832;51.186;3.236;2023-08-17T08:10:53;28.50;52.90
13521;DHT22;6832;51.186;3.236;2023-08-17T08:13:21;28.50;52.90
13521;DHT22;6832;51.186;3.236;2023-08-17T08:15:49;28.60;53.00
13521;DHT22;6832;51.186;3.236;2023-08-17T08:18:16;28.60;53.10
13521;DHT22;6832;51.186;3.236;2023-08-17T08:20:43;28.60;53.10
13521;DHT22;6832;51.186;3.236;2023-08-17T08:23:10;28.60;53.10
13521;DHT22;6832;51.186;3.236;2023-08-17T08:25:37;28.60;53.70
13521;DHT22;6832;51.186;3.236;2023-08-17T08:28:04;28.70;53.10
13521;DHT22;6832;51.186;3.236;2023-08-17T08:30:31;28.70;53.20
13521;DHT22;6832;51.186;3.236;2023-08-17T08:33:00;28.70;53.10
13521;DHT22;6832;51.186;3.236;2023-08-17T08:35:28;28.70;53.20
13521;DHT22;6832;51.186;3.236;2023-08-17T08:37:55;28.70;53.20
13521;DHT22;6832;51.186;3.236;2023-08-17T08:40:27;28.80;53.80
13521;DHT22;6832;51.186;3.236;2023-08-17T08:42:55;28.80;53.30
13521;DHT22;6832;51.186;3.236;2023-08-17T08:45:23;28.80;53.30
13521;DHT22;6832;51.186;3.236;2023-08-17T08:47:51;28.80;53.40
13521;DHT22;6832;51.186;3.236;2023-08-17T08:50:21;28.90;53.60
13521;DHT22;6832;51.186;3.236;2023-08-17T08:52:53;28.90;53.70
13521;DHT22;6832;51.186;3.236;2023-08-17T08:55:27;29.00;53.90
13521;DHT22;6832;51.186;3.236;2023-08-17T08:57:56;29.00;53.90
13521;DHT22;6832;51.186;3.236;2023-08-17T09:00:24;29.00;54.00
13521;DHT22;6832;51.186;3.236;2023-08-17T09:02:52;29.00;54.00
13521;DHT22;6832;51.186;3.236;2023-08-17T09:05:21;29.10;54.10
13521;DHT22;6832;51.186;3.236;2023-08-17T09:07:48;29.20;54.20
13521;DHT22;6832;51.186;3.236;2023-08-17T09:10:16;29.20;54.20
13521;DHT22;6832;51.186;3.236;2023-08-17T09:12:45;29.20;54.10
13521;DHT22;6832;51.186;3.236;2023-08-17T09:15:12;29.30;54.10
13521;DHT22;6832;51.186;3.236;2023-08-17T09:17:39;29.30;54.10
13521;DHT22;6832;51.186;3.236;2023-08-17T09:20:07;29.30;54.00
13521;DHT22;6832;51.186;3.236;2023-08-17T09:22:40;29.40;54.00
13521;DHT22;6832;51.186;3.236;2023-08-17T09:25:08;29.50;54.10
13521;DHT22;6832;51.186;3.236;2023-08-17T09:27:36;29.50;54.00
13521;DHT22;6832;51.186;3.236;2023-08-17T09:30:04;29.60;54.00
13521;DHT22;6832;51.186;3.236;2023-08-17T09:32:32;29.60;54.00
13521;DHT22;6832;51.186;3.236;2023-08-17T09:35:01;29.60;53.90
13521;DHT22;6832;51.186;3.236;2023-08-17T09:37:29;29.60;53.90
13521;DHT22;6832;51.186;3.236;2023-08-17T09:39:57;29.70;53.80
13521;DHT22;6832;51.186;3.236;2023-08-17T09:42:24;29.70;54.40
13521;DHT22;6832;51.186;3.236;2023-08-17T09:44:53;29.80;53.70
13521;DHT22;6832;51.186;3.236;2023-08-17T09:47:21;29.80;53.70
13521;DHT22;6832;51.186;3.236;2023-08-17T09:49:49;29.80;53.70
13521;DHT22;6832;51.186;3.236;2023-08-17T09:52:16;29.90;53.70
13521;DHT22;6832;51.186;3.236;2023-08-17T09:54:43;29.90;53.70
13521;DHT22;6832;51.186;3.236;2023-08-17T09:57:13;30.00;53.80
13521;DHT22;6832;51.186;3.236;2023-08-17T09:59:40;30.00;53.80
13521;DHT22;6832;51.186;3.236;2023-08-17T10:04:05;30.10;53.30
13521;DHT22;6832;51.186;3.236;2023-08-17T10:06:34;30.10;53.80
13521;DHT22;6832;51.186;3.236;2023-08-17T10:09:02;30.10;53.80
13521;DHT22;6832;51.186;3.236;2023-08-17T10:11:31;30.20;54.40
13521;DHT22;6832;51.186;3.236;2023-08-17T10:14:02;30.20;53.80
13521;DHT22;6832;51.186;3.236;2023-08-17T10:16:36;30.30;53.80
13521;DHT22;6832;51.186;3.236;2023-08-17T10:19:11;30.30;53.80
13521;DHT22;6832;51.186;3.236;2023-08-17T10:21:43;30.30;53.70
13521;DHT22;6832;51.186;3.236;2023-08-17T10:24:12;30.30;53.60
13521;DHT22;6832;51.186;3.236;2023-08-17T10:26:39;30.30;53.60
13521;DHT22;6832;51.186;3.236;2023-08-17T10:29:07;30.40;53.60
13521;DHT22;6832;51.186;3.236;2023-08-17T10:31:34;30.40;53.60
13521;DHT22;6832;51.186;3.236;2023-08-17T10:34:01;30.40;53.60
13521;DHT22;6832;51.186;3.236;2023-08-17T10:36:31;30.40;53.70
13521;DHT22;6832;51.186;3.236;2023-08-17T10:39:22;30.40;53.60
13521;DHT22;6832;51.186;3.236;2023-08-17T10:41:51;30.50;53.70
13521;DHT22;6832;51.186;3.236;2023-08-17T10:44:37;30.50;54.20
13521;DHT22;6832;51.186;3.236;2023-08-17T10:47:19;30.50;53.60
13521;DHT22;6832;51.186;3.236;2023-08-17T10:49:48;30.50;53.60
13521;DHT22;6832;51.186;3.236;2023-08-17T10:52:25;30.50;53.60
13521;DHT22;6832;51.186;3.236;2023-08-17T10:54:53;30.50;53.60
13521;DHT22;6832;51.186;3.236;2023-08-17T10:57:33;30.50;53.50
13521;DHT22;6832;51.186;3.236;2023-08-17T11:00:13;30.50;53.60
13521;DHT22;6832;51.186;3.236;2023-08-17T11:02:43;30.60;53.60
13521;DHT22;6832;51.186;3.236;2023-08-17T11:05:11;30.60;53.60
13521;DHT22;6832;51.186;3.236;2023-08-17T11:07:41;30.60;53.60
13521;DHT22;6832;51.186;3.236;2023-08-17T11:10:12;30.60;53.60
13521;DHT22;6832;51.186;3.236;2023-08-17T11:12:41;30.70;53.70
13521;DHT22;6832;51.186;3.236;2023-08-17T11:15:09;30.60;53.60
13521;DHT22;6832;51.186;3.236;2023-08-17T11:17:36;30.70;53.60
13521;DHT22;6832;51.186;3.236;2023-08-17T11:20:03;30.70;53.60
13521;DHT22;6832;51.186;3.236;2023-08-17T11:22:31;30.70;54.20
13521;DHT22;6832;51.186;3.236;2023-08-17T11:25:00;30.70;53.60
13521;DHT22;6832;51.186;3.236;2023-08-17T11:27:30;30.70;53.60
13521;DHT22;6832;51.186;3.236;2023-08-17T11:29:57;30.70;53.50
13521;DHT22;6832;51.186;3.236;2023-08-17T11:32:24;30.70;53.50
13521;DHT22;6832;51.186;3.236;2023-08-17T11:34:51;30.70;53.50
13521;DHT22;6832;51.186;3.236;2023-08-17T11:37:18;30.70;53.50
13521;DHT22;6832;51.186;3.236;2023-08-17T11:39:45;30.80;53.40
13521;DHT22;6832;51.186;3.236;2023-08-17T11:42:13;30.80;53.50
13521;DHT22;6832;51.186;3.236;2023-08-17T11:44:41;30.80;53.40
13521;DHT22;6832;51.186;3.236;2023-08-17T11:47:10;30.80;53.40
13521;DHT22;6832;51.186;3.236;2023-08-17T11:49:38;30.80;53.40
13521;DHT22;6832;51.186;3.236;2023-08-17T11:52:08;30.80;53.40
13521;DHT22;6832;51.186;3.236;2023-08-17T11:54:40;30.80;53.40
13521;DHT22;6832;51.186;3.236;2023-08-17T11:57:07;30.80;53.40
13521;DHT22;6832;51.186;3.236;2023-08-17T11:59:35;30.80;53.40
13521;DHT22;6832;51.186;3.236;2023-08-17T12:02:02;30.80;53.40
13521;DHT22;6832;51.186;3.236;2023-08-17T12:04:30;30.80;53.40
13521;DHT22;6832;51.186;3.236;2023-08-17T12:06:58;30.80;53.40
13521;DHT22;6832;51.186;3.236;2023-08-17T12:09:25;30.80;53.30
13521;DHT22;6832;51.186;3.236;2023-08-17T12:11:58;30.80;54.00
13521;DHT22;6832;51.186;3.236;2023-08-17T12:14:26;30.80;53.30
13521;DHT22;6832;51.186;3.236;2023-08-17T12:16:55;30.80;53.30
13521;DHT22;6832;51.186;3.236;2023-08-17T12:19:24;30.80;53.40
13521;DHT22;6832;51.186;3.236;2023-08-17T12:21:51;30.80;53.30
13521;DHT22;6832;51.186;3.236;2023-08-17T12:24:18;30.80;53.40
13521;DHT22;6832;51.186;3.236;2023-08-17T12:26:46;30.80;53.40
13521;DHT22;6832;51.186;3.236;2023-08-17T12:29:13;30.80;53.30
13521;DHT22;6832;51.186;3.236;2023-08-17T12:31:40;30.70;53.20
13521;DHT22;6832;51.186;3.236;2023-08-17T12:36:28;30.70;52.70
13521;DHT22;6832;51.186;3.236;2023-08-17T12:38:55;30.70;53.30
13521;DHT22;6832;51.186;3.236;2023-08-17T12:41:22;30.70;53.30
13521;DHT22;6832;51.186;3.236;2023-08-17T12:43:49;30.70;53.30
13521;DHT22;6832;51.186;3.236;2023-08-17T12:46:16;30.70;53.30
13521;DHT22;6832;51.186;3.236;2023-08-17T12:48:43;30.70;53.30
13521;DHT22;6832;51.186;3.236;2023-08-17T12:51:10;30.70;53.40
13521;DHT22;6832;51.186;3.236;2023-08-17T12:53:38;30.70;53.40
13521;DHT22;6832;51.186;3.236;2023-08-17T12:56:05;30.70;53.50
13521;DHT22;6832;51.186;3.236;2023-08-17T12:58:32;30.70;53.50
13521;DHT22;6832;51.186;3.236;2023-08-17T13:00:59;30.70;54.20
13521;DHT22;6832;51.186;3.236;2023-08-17T13:03:26;30.70;53.50
13521;DHT22;6832;51.186;3.236;2023-08-17T13:05:53;30.70;53.60
13521;DHT22;6832;51.186;3.236;2023-08-17T13:08:20;30.70;53.50
13521;DHT22;6832;51.186;3.236;2023-08-17T13:10:49;30.70;53.60
13521;DHT22;6832;51.186;3.236;2023-08-17T13:13:16;30.70;53.50
13521;DHT22;6832;51.186;3.236;2023-08-17T13:15:43;30.70;53.50
13521;DHT22;6832;51.186;3.236;2023-08-17T13:18:10;30.70;53.50
13521;DHT22;6832;51.186;3.236;2023-08-17T13:20:36;30.70;53.50
13521;DHT22;6832;51.186;3.236;2023-08-17T13:23:05;30.70;53.50
13521;DHT22;6832;51.186;3.236;2023-08-17T13:25:33;30.70;53.50
13521;DHT22;6832;51.186;3.236;2023-08-17T13:28:01;30.70;53.50
13521;DHT22;6832;51.186;3.236;2023-08-17T13:30:28;30.70;53.40
13521;DHT22;6832;51.186;3.236;2023-08-17T13:32:56;30.80;53.50
13521;DHT22;6832;51.186;3.236;2023-08-17T13:35:23;30.70;53.40
13521;DHT22;6832;51.186;3.236;2023-08-17T13:37:51;30.70;53.40
13521;DHT22;6832;51.186;3.236;2023-08-17T13:40:19;30.70;53.30
13521;DHT22;6832;51.186;3.236;2023-08-17T13:42:46;30.70;53.30
13521;DHT22;6832;51.186;3.236;2023-08-17T13:45:14;30.70;53.30
13521;DHT22;6832;51.186;3.236;2023-08-17T13:47:41;30.70;53.30
13521;DHT22;6832;51.186;3.236;2023-08-17T13:50:09;30.70;53.30
13521;DHT22;6832;51.186;3.236;2023-08-17T13:52:36;30.70;53.30
13521;DHT22;6832;51.186;3.236;2023-08-17T13:55:04;30.70;53.30
13521;DHT22;6832;51.186;3.236;2023-08-17T13:57:31;30.70;53.30
13521;DHT22;6832;51.186;3.236;2023-08-17T13:59:58;30.70;53.30
13521;DHT22;6832;51.186;3.236;2023-08-17T14:02:27;30.70;53.30
13521;DHT22;6832;51.186;3.236;2023-08-17T14:04:54;30.70;53.30
13521;DHT22;6832;51.186;3.236;2023-08-17T14:07:21;30.60;53.30
13521;DHT22;6832;51.186;3.236;2023-08-17T14:09:47;30.60;53.30
13521;DHT22;6832;51.186;3.236;2023-08-17T14:12:14;30.60;53.30
13521;DHT22;6832;51.186;3.236;2023-08-17T14:14:41;30.60;53.40
13521;DHT22;6832;51.186;3.236;2023-08-17T14:17:08;30.60;53.40
13521;DHT22;6832;51.186;3.236;2023-08-17T14:19:37;30.50;53.30
13521;DHT22;6832;51.186;3.236;2023-08-17T14:22:04;30.60;53.40
13521;DHT22;6832;51.186;3.236;2023-08-17T14:24:31;30.50;53.30
13521;DHT22;6832;51.186;3.236;2023-08-17T14:26:58;30.50;53.40
13521;DHT22;6832;51.186;3.236;2023-08-17T14:29:24;30.50;53.40
13521;DHT22;6832;51.186;3.236;2023-08-17T14:31:51;30.50;53.30
13521;DHT22;6832;51.186;3.236;2023-08-17T14:34:18;30.50;53.40
13521;DHT22;6832;51.186;3.236;2023-08-17T14:36:48;30.50;53.40
13521;DHT22;6832;51.186;3.236;2023-08-17T14:39:15;30.50;53.40
13521;DHT22;6832;51.186;3.236;2023-08-17T14:41:42;30.50;53.40
13521;DHT22;6832;51.186;3.236;2023-08-17T14:44:09;30.50;53.40
13521;DHT22;6832;51.186;3.236;2023-08-17T14:46:36;30.50;53.40
13521;DHT22;6832;51.186;3.236;2023-08-17T14:49:04;30.60;53.50
13521;DHT22;6832;51.186;3.236;2023-08-17T14:51:37;30.50;53.40
13521;DHT22;6832;51.186;3.236;2023-08-17T14:54:06;30.60;53.50
13521;DHT22;6832;51.186;3.236;2023-08-17T14:56:33;30.50;53.40
13521;DHT22;6832;51.186;3.236;2023-08-17T14:59:00;30.50;53.40
13521;DHT22;6832;51.186;3.236;2023-08-17T15:01:28;30.60;54.10
13521;DHT22;6832;51.186;3.236;2023-08-17T15:03:55;30.50;53.40
13521;DHT22;6832;51.186;3.236;2023-08-17T15:06:22;30.60;53.40
13521;DHT22;6832;51.186;3.236;2023-08-17T15:08:50;30.50;53.40
13521;DHT22;6832;51.186;3.236;2023-08-17T15:11:18;30.50;53.40
13521;DHT22;6832;51.186;3.236;2023-08-17T15:13:45;30.50;53.40
13521;DHT22;6832;51.186;3.236;2023-08-17T15:16:12;30.50;53.40
13521;DHT22;6832;51.186;3.236;2023-08-17T15:18:39;30.50;53.40
13521;DHT22;6832;51.186;3.236;2023-08-17T15:21:06;30.50;53.40
13521;DHT22;6832;51.186;3.236;2023-08-17T15:23:34;30.50;53.30
13521;DHT22;6832;51.186;3.236;2023-08-17T15:26:00;30.50;53.40
13521;DHT22;6832;51.186;3.236;2023-08-17T15:28:29;30.50;54.00
13521;DHT22;6832;51.186;3.236;2023-08-17T15:31:02;30.50;53.30
13521;DHT22;6832;51.186;3.236;2023-08-17T15:33:30;30.50;53.30
13521;DHT22;6832;51.186;3.236;2023-08-17T15:35:57;30.50;53.30
13521;DHT22;6832;51.186;3.236;2023-08-17T15:38:24;30.50;53.40
13521;DHT22;6832;51.186;3.236;2023-08-17T15:40:51;30.50;53.40
13521;DHT22;6832;51.186;3.236;2023-08-17T15:43:18;30.50;53.30
13521;DHT22;6832;51.186;3.236;2023-08-17T15:45:51;30.50;53.40
13521;DHT22;6832;51.186;3.236;2023-08-17T15:48:18;30.50;53.40
13521;DHT22;6832;51.186;3.236;2023-08-17T15:50:45;30.50;53.40
13521;DHT22;6832;51.186;3.236;2023-08-17T15:53:12;30.50;53.40